createdAt,value
2018-07-07T02:14:09.193Z,22.95
2018-07-07T02:16:39.198Z,21.30
2018-07-07T02:19:08.248Z,20.10
2018-07-07T02:21:37.323Z,21.27
2018-07-07T02:24:06.404Z,23.50
2018-07-07T02:26:39.727Z,23.00
2018-07-07T02:31:44.546Z,28.40
2018-07-07T02:34:13.633Z,21.63
2018-07-07T02:36:44.674Z,20.70
2018-07-07T02:39:13.749Z,19.73
2018-07-07T02:41:42.810Z,19.63
2018-07-07T02:44:15.044Z,23.60
2018-07-07T02:46:47.924Z,27.25
2018-07-07T02:51:52.700Z,24.97
2018-07-07T02:54:24.849Z,26.30
2018-07-07T02:59:29.613Z,29.30
2018-07-07T03:02:03.028Z,24.43
2018-07-07T03:04:40.041Z,24.40
2018-07-07T03:07:09.130Z,21.97
2018-07-07T03:09:38.175Z,22.90
2018-07-07T03:14:42.945Z,28.87
2018-07-07T03:17:12.017Z,30.60
2018-07-07T03:22:17.024Z,29.20
2018-07-07T03:24:46.126Z,30.17
2018-07-07T03:27:15.182Z,26.60
2018-07-07T03:29:46.222Z,30.73
2018-07-07T03:32:18.905Z,32.73
2018-07-07T03:34:47.970Z,31.52
2018-07-07T03:37:17.053Z,25.87
2018-07-07T03:39:46.159Z,27.60
2018-07-07T03:42:17.170Z,40.53
2018-07-07T03:44:46.289Z,36.87
2018-07-07T03:47:17.281Z,28.63
2018-07-07T03:52:23.058Z,36.30
2018-07-07T03:57:27.834Z,37.00
2018-07-07T03:59:59.196Z,29.00
2018-07-07T04:05:05.996Z,28.17
2018-07-07T04:07:35.942Z,26.90
2018-07-07T04:10:05.219Z,24.17
2018-07-07T04:12:34.278Z,20.97
2018-07-07T04:15:03.386Z,20.10
2018-07-07T04:20:08.196Z,22.57
2018-07-07T04:22:37.254Z,21.23
2018-07-07T04:25:06.437Z,19.60
2018-07-07T04:27:35.516Z,18.90
2018-07-07T04:30:13.113Z,20.23
2018-07-07T04:35:17.890Z,24.00
2018-07-07T04:37:46.967Z,23.70
2018-07-07T04:40:16.212Z,22.70
2018-07-07T04:42:45.274Z,22.67
2018-07-07T04:45:15.285Z,19.77
2018-07-07T04:50:20.069Z,20.50
2018-07-07T04:55:25.589Z,22.23
2018-07-07T04:57:55.687Z,17.50
2018-07-07T05:03:03.717Z,19.93
2018-07-07T05:05:32.811Z,18.30
2018-07-07T05:08:01.980Z,18.33
2018-07-07T05:10:31.980Z,20.30
2018-07-07T05:13:01.042Z,19.53
2018-07-07T05:15:30.143Z,17.93
2018-07-07T05:17:59.539Z,16.43
2018-07-07T05:20:28.598Z,17.90
2018-07-07T05:22:58.207Z,18.27
2018-07-07T05:25:27.286Z,18.43
2018-07-07T05:30:32.085Z,23.30
2018-07-07T05:33:02.144Z,19.17
2018-07-07T05:35:31.211Z,18.30
2018-07-07T05:38:00.408Z,18.00
2018-07-07T05:40:29.714Z,19.87
2018-07-07T05:42:58.833Z,18.13
2018-07-07T05:45:27.894Z,17.80
2018-07-07T05:50:32.817Z,19.37
2018-07-07T05:53:01.910Z,15.67
2018-07-07T05:55:43.809Z,16.90
2018-07-07T05:58:23.908Z,15.03
2018-07-07T06:01:02.441Z,15.37
2018-07-07T06:03:37.515Z,15.47
2018-07-07T06:06:07.205Z,16.48
2018-07-07T06:08:36.277Z,14.93
2018-07-07T06:11:05.342Z,14.17
2018-07-07T06:13:34.425Z,17.87
2018-07-07T06:16:03.695Z,15.07
2018-07-07T06:18:32.806Z,15.40
2018-07-07T06:21:01.861Z,13.77
2018-07-07T06:23:31.846Z,14.47
2018-07-07T06:26:01.124Z,13.23
2018-07-07T06:28:30.354Z,13.97
2018-07-07T06:30:59.462Z,13.83
2018-07-07T06:33:28.528Z,13.50
2018-07-07T06:35:57.697Z,15.20
2018-07-07T06:38:26.774Z,12.27
2018-07-07T06:43:31.793Z,14.07
2018-07-07T06:46:02.932Z,13.43
2018-07-07T06:48:31.968Z,13.43
2018-07-07T06:51:01.973Z,13.17
2018-07-07T06:53:31.039Z,12.73
2018-07-07T06:56:00.317Z,12.03
2018-07-07T06:58:29.373Z,12.63
2018-07-07T07:01:00.421Z,12.93
2018-07-07T07:03:29.502Z,11.43
2018-07-07T07:05:58.635Z,10.97
2018-07-07T07:11:03.394Z,13.13
2018-07-07T07:16:08.241Z,12.52
2018-07-07T07:18:38.299Z,11.40
2018-07-07T07:21:07.701Z,10.40
2018-07-07T07:23:36.751Z,17.27
2018-07-07T07:26:05.945Z,9.80
2018-07-07T07:28:34.911Z,9.87
2018-07-07T07:31:04.079Z,10.80
2018-07-07T07:33:33.112Z,10.50
2018-07-07T07:36:06.277Z,10.23
2018-07-07T07:38:36.247Z,9.50
2018-07-07T07:41:06.581Z,8.00
2018-07-07T07:43:35.692Z,7.27
2018-07-07T07:46:05.040Z,8.53
2018-07-07T07:51:09.969Z,9.15
2018-07-07T07:53:40.111Z,8.63
2018-07-07T07:56:09.164Z,8.20
2018-07-07T07:58:38.234Z,9.83
2018-07-07T08:01:08.667Z,7.60
2018-07-07T08:03:37.838Z,8.70
2018-07-07T08:06:06.871Z,8.38
2018-07-07T08:08:35.914Z,7.57
2018-07-07T08:13:40.773Z,8.38
2018-07-07T08:16:09.897Z,8.35
2018-07-07T08:18:40.258Z,10.03
2018-07-07T08:21:09.309Z,7.80
2018-07-07T08:23:39.608Z,7.47
2018-07-07T08:26:08.965Z,5.93
2018-07-07T08:28:39.067Z,6.10
2018-07-07T08:31:08.158Z,6.75
2018-07-07T08:33:37.214Z,7.87
2018-07-07T08:36:06.447Z,6.33
2018-07-07T08:41:11.294Z,5.30
2018-07-07T08:46:16.150Z,5.75
2018-07-07T08:48:45.950Z,7.03
2018-07-07T08:51:19.329Z,7.30
2018-07-07T08:53:49.126Z,6.30
2018-07-07T08:56:18.187Z,6.43
2018-07-07T08:58:47.256Z,7.53
2018-07-07T09:01:16.419Z,7.23
2018-07-07T09:03:45.473Z,6.47
2018-07-07T09:08:50.325Z,6.72
2018-07-07T09:11:20.330Z,6.05
2018-07-07T09:13:55.015Z,6.17
2018-07-07T09:16:32.556Z,5.83
2018-07-07T09:21:37.433Z,6.32
2018-07-07T09:24:07.409Z,5.90
2018-07-07T09:26:40.410Z,5.37
2018-07-07T09:29:10.418Z,5.07
2018-07-07T09:31:39.476Z,5.77
2018-07-07T09:34:08.802Z,5.50
2018-07-07T09:36:37.920Z,5.73
2018-07-07T09:39:10.812Z,4.50
2018-07-07T09:41:39.860Z,4.57
2018-07-07T09:44:09.898Z,5.10
2018-07-07T09:46:38.990Z,4.78
2018-07-07T09:49:08.057Z,4.73
2018-07-07T09:51:39.088Z,5.95
2018-07-07T09:54:08.141Z,5.23
2018-07-07T09:56:38.410Z,5.53
2018-07-07T09:59:07.826Z,4.53
2018-07-07T10:01:36.869Z,4.40
2018-07-07T10:04:05.926Z,5.40
2018-07-07T10:06:36.022Z,7.53
2018-07-07T10:09:07.234Z,4.70
2018-07-07T10:11:36.809Z,4.47
2018-07-07T10:14:05.858Z,4.40
2018-07-07T10:19:11.760Z,4.62
2018-07-07T10:21:40.819Z,6.13
2018-07-07T10:24:09.866Z,4.87
2018-07-07T10:26:40.934Z,4.30
2018-07-07T10:29:12.150Z,3.87
2018-07-07T10:31:41.459Z,4.23
2018-07-07T10:34:11.925Z,4.23
2018-07-07T10:36:40.966Z,5.20
2018-07-07T10:41:46.043Z,3.70
2018-07-07T10:44:15.300Z,4.00
2018-07-07T10:46:44.341Z,3.73
2018-07-07T10:49:13.400Z,3.70
2018-07-07T10:51:42.453Z,3.40
2018-07-07T10:54:12.701Z,4.05
2018-07-07T10:56:43.042Z,3.30
2018-07-07T10:59:12.100Z,5.00
2018-07-07T11:01:42.080Z,3.90
2018-07-07T11:04:11.182Z,3.00
2018-07-07T11:06:42.298Z,4.87
2018-07-07T11:09:12.635Z,3.63
2018-07-07T11:11:41.694Z,3.90
2018-07-07T11:14:11.704Z,3.43
2018-07-07T11:16:48.957Z,3.93
2018-07-07T11:19:19.005Z,3.23
2018-07-07T11:21:48.147Z,3.80
2018-07-07T11:29:28.913Z,3.58
2018-07-07T11:31:57.978Z,3.87
2018-07-07T11:34:27.026Z,4.30
2018-07-07T11:36:56.204Z,4.30
2018-07-07T11:39:25.292Z,3.80
2018-07-07T11:41:54.334Z,4.83
2018-07-07T11:44:23.388Z,4.30
2018-07-07T11:46:52.617Z,7.97
2018-07-07T11:49:21.834Z,4.20
2018-07-07T11:51:50.855Z,4.63
2018-07-07T11:54:19.924Z,8.10
2018-07-07T11:56:49.122Z,7.00
2018-07-07T11:59:18.175Z,4.23
2018-07-07T12:04:23.919Z,4.70
2018-07-07T12:06:52.956Z,3.93
2018-07-07T12:09:22.012Z,3.70
2018-07-07T12:11:51.104Z,3.58
2018-07-07T12:14:21.302Z,3.80
2018-07-07T12:19:26.361Z,4.65
2018-07-07T12:21:56.389Z,3.60
2018-07-07T12:24:26.457Z,2.93
2018-07-07T12:26:55.522Z,3.60
2018-07-07T12:29:28.901Z,3.67
2018-07-07T12:31:58.855Z,3.40
2018-07-07T12:34:31.320Z,3.87
2018-07-07T12:37:00.390Z,3.50
2018-07-07T12:39:29.537Z,3.57
2018-07-07T12:41:58.602Z,3.17
2018-07-07T12:44:31.863Z,3.40
2018-07-07T12:47:01.069Z,3.67
2018-07-07T12:52:05.945Z,3.65
2018-07-07T12:54:34.960Z,3.58
2018-07-07T12:57:04.005Z,4.10
2018-07-07T12:59:33.247Z,4.33
2018-07-07T13:02:03.286Z,4.03
2018-07-07T13:04:32.352Z,3.63
2018-07-07T13:07:01.647Z,4.13
2018-07-07T13:12:06.958Z,6.05
2018-07-07T13:14:36.955Z,4.30
2018-07-07T13:17:06.169Z,5.53
2018-07-07T13:19:36.183Z,4.77
2018-07-07T13:22:12.655Z,4.80
2018-07-07T13:24:45.125Z,5.37
2018-07-07T13:27:18.858Z,4.60
2018-07-07T13:29:47.929Z,4.33
2018-07-07T13:32:17.094Z,6.70
2018-07-07T13:34:46.169Z,4.07
2018-07-07T13:37:16.145Z,4.37
2018-07-07T13:39:46.176Z,5.33
2018-07-07T13:42:15.399Z,4.90
2018-07-07T13:44:45.512Z,4.13
2018-07-07T13:49:50.498Z,4.53
2018-07-07T13:52:19.552Z,4.70
2018-07-07T13:54:50.592Z,4.30
2018-07-07T13:57:20.785Z,4.30
2018-07-07T13:59:49.850Z,4.50
2018-07-07T14:02:20.304Z,4.80
2018-07-07T14:07:25.122Z,4.90
2018-07-07T14:09:55.189Z,4.87
2018-07-07T14:12:24.255Z,4.50
2018-07-07T14:14:55.232Z,5.60
2018-07-07T14:17:24.300Z,5.00
2018-07-07T14:19:58.840Z,4.75
2018-07-07T14:25:03.683Z,5.37
2018-07-07T14:27:32.729Z,4.68
2018-07-07T14:30:01.789Z,5.22
2018-07-07T14:35:06.669Z,6.62
2018-07-07T14:37:35.957Z,5.97
2018-07-07T14:40:05.077Z,5.27
2018-07-07T14:42:36.144Z,4.85
2018-07-07T14:47:41.957Z,5.50
2018-07-07T14:52:47.787Z,5.85
2018-07-07T14:55:20.357Z,4.50
2018-07-07T14:57:49.529Z,6.00
2018-07-07T15:00:18.593Z,5.33
2018-07-07T15:02:47.661Z,4.73
2018-07-07T15:05:16.721Z,5.03
2018-07-07T15:07:45.974Z,4.50
2018-07-07T15:10:16.068Z,6.50
2018-07-07T15:12:45.106Z,4.53
2018-07-07T15:15:15.105Z,4.30
2018-07-07T15:17:44.610Z,5.17
2018-07-07T15:20:14.642Z,4.67
2018-07-07T15:22:43.734Z,5.00
2018-07-07T15:25:12.750Z,4.97
2018-07-07T15:27:43.232Z,4.40
2018-07-07T15:30:12.449Z,4.87
2018-07-07T15:32:41.491Z,5.12
2018-07-07T15:35:10.579Z,5.00
2018-07-07T15:37:39.738Z,5.10
2018-07-07T15:42:44.638Z,5.05
2018-07-07T15:45:14.021Z,4.70
2018-07-07T15:47:44.079Z,4.83
2018-07-07T15:52:49.250Z,5.00
2018-07-07T15:55:19.242Z,4.90
2018-07-07T15:57:49.281Z,5.53
2018-07-07T16:00:18.363Z,5.07
2018-07-07T16:02:48.591Z,4.90
2018-07-07T16:05:17.617Z,5.10
2018-07-07T16:07:46.665Z,6.10
2018-07-07T16:10:15.728Z,4.90
2018-07-07T16:12:44.887Z,5.53
2018-07-07T16:15:17.710Z,5.13
2018-07-07T16:17:46.719Z,4.37
2018-07-07T16:20:15.773Z,4.30
2018-07-07T16:22:45.757Z,5.10
2018-07-07T16:25:14.814Z,5.00
2018-07-07T16:27:44.035Z,5.87
2018-07-07T16:30:13.338Z,5.00
2018-07-07T16:32:42.489Z,4.83
2018-07-07T16:35:12.509Z,5.47
2018-07-07T16:37:41.572Z,7.90
2018-07-07T16:40:10.629Z,6.37
2018-07-07T16:42:39.689Z,13.23
2018-07-07T16:45:09.037Z,7.57
2018-07-07T16:47:41.546Z,5.57
2018-07-07T16:50:10.738Z,5.77
2018-07-07T16:52:39.773Z,5.87
2018-07-07T16:57:44.661Z,6.20
2018-07-07T17:00:13.708Z,7.47
2018-07-07T17:02:42.766Z,33.50
2018-07-07T17:05:12.754Z,10.43
2018-07-07T17:07:42.862Z,7.23
2018-07-07T17:10:11.902Z,46.37
2018-07-07T17:12:41.048Z,5.07
2018-07-07T17:15:11.206Z,12.30
2018-07-07T17:17:42.442Z,26.37
2018-07-07T17:20:11.509Z,12.80
2018-07-07T17:22:40.575Z,10.83
2018-07-07T17:25:09.625Z,7.80
2018-07-07T17:27:38.690Z,5.30
2018-07-07T17:30:07.734Z,5.93
2018-07-07T17:32:36.793Z,81.95
2018-07-07T17:37:41.625Z,173.80
2018-07-07T17:40:10.760Z,22.13
2018-07-07T17:42:39.994Z,8.40
2018-07-07T17:45:09.058Z,6.87
2018-07-07T17:50:13.865Z,8.95
2018-07-07T17:52:42.938Z,5.83
2018-07-07T17:57:47.818Z,8.18
2018-07-07T18:02:52.924Z,5.90
2018-07-07T18:05:21.969Z,5.77
2018-07-07T18:07:52.992Z,5.43
2018-07-07T18:10:22.044Z,5.20
2018-07-07T18:12:51.238Z,6.10
2018-07-07T18:15:20.398Z,6.50
2018-07-07T18:17:50.398Z,5.80
2018-07-07T18:20:21.461Z,5.83
2018-07-07T18:25:26.494Z,6.12
2018-07-07T18:27:55.542Z,5.60
2018-07-07T18:30:25.525Z,6.30
2018-07-07T18:32:54.588Z,7.10
2018-07-07T18:35:23.843Z,7.47
2018-07-07T18:40:29.712Z,7.25
2018-07-07T18:43:04.179Z,7.20
2018-07-07T18:45:34.157Z,6.07
2018-07-07T18:48:07.030Z,6.90
2018-07-07T18:50:37.073Z,6.80
2018-07-07T18:53:13.592Z,6.87
2018-07-07T18:55:42.626Z,6.13
2018-07-07T18:58:17.240Z,6.23
2018-07-07T19:00:48.374Z,6.57
2018-07-07T19:05:54.172Z,8.25
2018-07-07T19:08:23.227Z,8.07
2018-07-07T19:10:52.279Z,9.27
2018-07-07T19:13:22.284Z,8.50
2018-07-07T19:15:52.315Z,8.50
2018-07-07T19:18:21.361Z,6.87
2018-07-07T19:20:50.410Z,7.83
2018-07-07T19:28:30.734Z,9.52
2018-07-07T19:31:00.734Z,9.82
2018-07-07T19:39:13.524Z,10.73
2018-07-07T19:41:42.579Z,7.67
2018-07-07T19:46:47.327Z,8.73
2018-07-07T19:49:17.361Z,9.52
2018-07-07T19:51:46.423Z,9.20
2018-07-07T19:54:18.691Z,8.53
2018-07-07T19:59:23.464Z,9.20
2018-07-07T20:01:52.541Z,16.12
2018-07-07T20:04:23.613Z,11.75
2018-07-07T20:06:52.681Z,10.47
2018-07-07T20:09:21.751Z,9.80
2018-07-07T20:14:28.526Z,10.35
2018-07-07T20:16:58.513Z,13.27
2018-07-07T20:19:28.525Z,10.87
2018-07-07T20:21:58.579Z,25.70
2018-07-07T20:24:27.713Z,22.80
2018-07-07T20:26:56.739Z,14.03
2018-07-07T20:32:01.525Z,11.77
2018-07-07T20:34:30.863Z,10.53
2018-07-07T20:36:59.923Z,12.10
2018-07-07T20:39:29.942Z,11.40
2018-07-07T20:44:34.825Z,11.53
2018-07-07T20:47:03.893Z,12.07
2018-07-07T20:49:32.963Z,11.90
2018-07-07T20:52:03.010Z,12.48
2018-07-07T20:54:41.029Z,12.00
2018-07-07T20:57:10.098Z,11.50
2018-07-07T20:59:39.161Z,11.80
2018-07-07T21:02:08.348Z,12.30
2018-07-07T21:07:13.058Z,12.57
2018-07-07T21:12:17.923Z,11.70
2018-07-07T21:14:47.943Z,13.93
2018-07-07T21:17:18.957Z,14.80
2018-07-07T21:19:48.973Z,13.30
2018-07-07T21:24:53.773Z,13.90
2018-07-07T21:27:22.880Z,13.93
2018-07-07T21:29:52.125Z,11.20
2018-07-07T21:32:21.224Z,12.55
2018-07-07T21:37:26.035Z,12.07
2018-07-07T21:42:31.370Z,14.00
2018-07-07T21:45:01.361Z,13.57
2018-07-07T21:47:32.426Z,14.10
2018-07-07T21:50:02.442Z,14.93
2018-07-07T21:52:31.504Z,12.40
2018-07-07T21:55:00.562Z,12.13
2018-07-07T22:00:05.414Z,13.63
2018-07-07T22:02:34.473Z,14.37
2018-07-07T22:08:02.245Z,15.00
2018-07-07T22:13:07.034Z,18.50
2018-07-07T22:15:36.104Z,14.23
2018-07-07T22:18:05.168Z,12.23
2018-07-07T22:20:34.278Z,12.40
2018-07-07T22:23:03.333Z,15.83
2018-07-07T22:25:33.314Z,12.67
2018-07-07T22:30:38.103Z,12.83
2018-07-07T22:33:08.081Z,13.37
2018-07-07T22:35:37.145Z,11.77
2018-07-07T22:38:06.206Z,12.40
2018-07-07T22:40:35.314Z,13.10
2018-07-07T22:43:09.699Z,12.63
2018-07-07T22:48:14.523Z,13.00
2018-07-07T22:50:44.465Z,12.10
2018-07-07T22:58:26.059Z,14.13
2018-07-07T23:00:55.143Z,13.68
2018-07-07T23:05:59.980Z,13.57
2018-07-07T23:08:29.975Z,13.90
2018-07-07T23:10:59.023Z,12.27
2018-07-07T23:13:28.112Z,11.97
2018-07-07T23:15:59.113Z,11.80
2018-07-07T23:23:39.632Z,14.33
2018-07-07T23:26:08.719Z,13.50
2018-07-07T23:28:37.796Z,12.33
2018-07-07T23:31:06.847Z,12.70
2018-07-07T23:36:11.687Z,15.00
2018-07-07T23:38:41.657Z,13.53
2018-07-07T23:41:10.701Z,13.40
2018-07-07T23:46:15.560Z,15.17
2018-07-07T23:48:44.629Z,14.97
2018-07-07T23:51:14.650Z,13.97
2018-07-07T23:56:19.422Z,14.27
2018-07-07T23:58:48.499Z,13.53
